Time;durP1;ratioP1;P1;durP2;ratioP2;P2;SDS_P1;SDS_P2;PMS_P1;PMS_P2;Temp;Humidity;BMP_temperature;BMP_pressure;BME280_temperature;BME280_humidity;BME280_pressure;Samples;Min_cycle;Max_cycle;Signal;HPM_P1;HPM_P2
2022/06/27 00:01:39;;;;;;;0.05;0.05;;;22.00;86.10;;;;;;4995375;28;20038;-74
2022/06/27 00:04:05;;;;;;;0.10;0.10;;;21.80;85.60;;;;;;4994059;28;20030;-75
2022/06/27 00:06:31;;;;;;;0.10;0.10;;;21.40;87.40;;;;;;4994065;28;20026;-74
2022/06/27 00:08:56;;;;;;;0.00;0.00;;;21.20;89.10;;;;;;4993863;28;20018;-75
2022/06/27 00:11:22;;;;;;;0.00;0.00;;;21.00;90.50;;;;;;4994048;28;20057;-75
2022/06/27 00:13:48;;;;;;;0.10;0.10;;;21.10;90.30;;;;;;4995225;28;20474;-74
2022/06/27 00:16:14;;;;;;;0.00;0.00;;;21.20;90.80;;;;;;4995173;28;20083;-75
2022/06/27 00:18:40;;;;;;;0.00;0.00;;;21.10;90.70;;;;;;4993588;28;20038;-75
2022/06/27 00:21:06;;;;;;;0.00;0.00;;;21.20;90.90;;;;;;4993868;28;20062;-75
2022/06/27 00:23:32;;;;;;;0.38;0.38;;;21.00;91.70;;;;;;4995008;28;20072;-75
2022/06/27 00:25:57;;;;;;;0.08;0.08;;;21.10;91.80;;;;;;4994951;28;20098;-75
2022/06/27 00:28:23;;;;;;;0.10;0.10;;;21.10;91.60;;;;;;4994799;28;20026;-74
2022/06/27 00:30:49;;;;;;;0.00;0.00;;;21.10;91.90;;;;;;4993357;28;20192;-75
2022/06/27 00:33:14;;;;;;;0.00;0.00;;;21.00;92.20;;;;;;4993526;28;20026;-75
2022/06/27 00:35:40;;;;;;;0.10;0.10;;;20.90;92.90;;;;;;4994856;28;20030;-75
2022/06/27 00:38:06;;;;;;;0.17;0.17;;;20.90;93.40;;;;;;4994905;28;20386;-75
2022/06/27 00:40:32;;;;;;;0.10;0.10;;;20.80;93.80;;;;;;4993379;28;20034;-75
2022/06/27 00:42:58;;;;;;;0.10;0.10;;;20.90;94.60;;;;;;4994735;28;20142;-75
2022/06/27 00:45:23;;;;;;;0.10;0.10;;;21.00;94.50;;;;;;4994809;28;20102;-74
2022/06/27 00:47:50;;;;;;;0.00;0.00;;;20.80;94.90;;;;;;4994613;28;20438;-74
2022/06/27 00:50:16;;;;;;;0.75;0.75;;;20.70;96.30;;;;;;4993197;28;20610;-75
2022/06/27 00:52:42;;;;;;;0.10;0.10;;;20.80;97.40;;;;;;4994419;28;20106;-75
2022/06/27 00:55:09;;;;;;;0.08;0.08;;;20.90;97.30;;;;;;4994506;28;20093;-75
2022/06/27 00:57:36;;;;;;;0.10;0.10;;;20.90;98.00;;;;;;4994305;28;20034;-75
2022/06/27 01:00:03;;;;;;;0.10;0.10;;;20.90;98.30;;;;;;4993116;28;20102;-75
2022/06/27 01:02:29;;;;;;;0.20;0.20;;;20.80;98.20;;;;;;4994319;28;20054;-75
2022/06/27 01:04:55;;;;;;;0.10;0.10;;;20.70;99.10;;;;;;4992408;28;20528;-75
2022/06/27 01:07:20;;;;;;;0.22;0.22;;;20.80;99.70;;;;;;4994131;28;20110;-75
2022/06/27 01:09:47;;;;;;;14.32;5.85;;;20.90;99.10;;;;;;4994044;28;20106;-75
2022/06/27 01:12:12;;;;;;;0.00;0.00;;;21.00;97.60;;;;;;4994169;28;20422;-75
2022/06/27 01:14:38;;;;;;;0.10;0.10;;;21.10;97.00;;;;;;4994079;28;20065;-74
2022/06/27 01:17:05;;;;;;;0.00;0.00;;;21.20;97.30;;;;;;4992589;28;20497;-75
2022/06/27 01:19:30;;;;;;;0.10;0.10;;;21.10;97.20;;;;;;4993811;28;20033;-75
2022/06/27 01:21:57;;;;;;;0.10;0.10;;;21.10;97.30;;;;;;4992732;28;20026;-74
2022/06/27 01:24:25;;;;;;;0.00;0.00;;;21.20;98.20;;;;;;4992580;28;20490;-75
2022/06/27 01:26:51;;;;;;;0.00;0.00;;;21.10;98.10;;;;;;4992615;28;20109;-74
2022/06/27 01:29:18;;;;;;;0.00;0.00;;;21.10;98.00;;;;;;4993714;28;20018;-75
2022/06/27 01:31:44;;;;;;;0.00;0.00;;;21.00;98.20;;;;;;4993935;28;20025;-75
2022/06/27 01:34:10;;;;;;;0.00;0.00;;;20.90;99.20;;;;;;4993826;28;20022;-75
2022/06/27 01:36:42;;;;;;;0.00;0.00;;;20.90;99.50;;;;;;4993693;28;20034;-74
2022/06/27 01:39:12;;;;;;;0.10;0.10;;;21.00;99.70;;;;;;4993359;28;20033;-74
2022/06/27 01:41:45;;;;;;;0.00;0.00;;;21.00;99.00;;;;;;4992476;28;20081;-75
2022/06/27 01:44:12;;;;;;;0.03;0.03;;;21.00;98.90;;;;;;4993794;28;20034;-75
2022/06/27 01:46:43;;;;;;;0.00;0.00;;;20.90;99.70;;;;;;4993520;28;20105;-75
2022/06/27 01:49:10;;;;;;;0.20;0.20;;;20.80;99.80;;;;;;4992061;28;20501;-75
2022/06/27 01:51:37;;;;;;;0.10;0.10;;;20.70;99.90;;;;;;4992195;28;20089;-75
2022/06/27 01:54:04;;;;;;;0.10;0.10;;;20.60;99.90;;;;;;4992149;28;20031;-74
2022/06/27 01:56:30;;;;;;;0.00;0.00;;;20.80;99.90;;;;;;4993324;28;20026;-75
2022/06/27 01:58:58;;;;;;;0.10;0.10;;;20.70;99.90;;;;;;4991754;28;20038;-75
2022/06/27 02:01:25;;;;;;;0.00;0.00;;;20.70;99.90;;;;;;4993246;28;20027;-75
2022/06/27 02:03:52;;;;;;;0.17;0.17;;;20.50;99.90;;;;;;4992064;28;20418;-74
2022/06/27 02:06:18;;;;;;;0.10;0.10;;;20.40;99.90;;;;;;4993137;28;20078;-75
2022/06/27 02:08:48;;;;;;;0.15;0.15;;;20.20;99.90;;;;;;4993066;28;20026;-75
2022/06/27 02:11:14;;;;;;;1.10;1.00;;;20.10;99.90;;;;;;4991892;28;20030;-75
2022/06/27 02:13:42;;;;;;;0.25;0.25;;;20.10;99.90;;;;;;4991837;28;20022;-75
2022/06/27 02:16:10;;;;;;;0.00;0.00;;;20.00;99.90;;;;;;4991741;28;20037;-75
2022/06/27 02:18:37;;;;;;;0.25;0.25;;;20.10;99.90;;;;;;4992822;28;20122;-75
2022/06/27 02:21:03;;;;;;;0.00;0.00;;;20.10;99.90;;;;;;4991764;28;20030;-75
2022/06/27 02:23:29;;;;;;;0.20;0.20;;;20.10;99.90;;;;;;4991688;28;20030;-75
2022/06/27 02:25:56;;;;;;;0.30;0.30;;;20.10;99.90;;;;;;4992886;28;20023;-75
2022/06/27 02:28:25;;;;;;;0.17;0.17;;;20.00;99.90;;;;;;4991705;28;20030;-75
2022/06/27 02:30:51;;;;;;;0.10;0.10;;;20.00;99.90;;;;;;4991460;28;20018;-75
2022/06/27 02:33:17;;;;;;;0.10;0.10;;;20.20;99.90;;;;;;4992900;28;20031;-75
2022/06/27 02:35:45;;;;;;;0.10;0.10;;;20.40;99.90;;;;;;4992925;28;20037;-75
2022/06/27 02:38:11;;;;;;;0.10;0.10;;;20.50;99.90;;;;;;4992967;28;20124;-75
2022/06/27 02:40:39;;;;;;;0.00;0.00;;;20.60;99.90;;;;;;4992681;28;20026;-75
2022/06/27 02:43:07;;;;;;;0.10;0.10;;;20.40;99.90;;;;;;4991309;28;20030;-75
2022/06/27 02:45:38;;;;;;;0.10;0.10;;;20.50;99.90;;;;;;4992766;28;20027;-75
2022/06/27 02:48:05;;;;;;;0.00;0.00;;;20.40;99.90;;;;;;4992740;28;20101;-75
2022/06/27 02:50:32;;;;;;;0.00;0.00;;;20.30;99.90;;;;;;4992513;28;20041;-75
2022/06/27 02:53:05;;;;;;;0.10;0.10;;;20.40;99.90;;;;;;4991401;28;20552;-74
2022/06/27 02:55:52;;;;;;;0.20;0.20;;;20.50;99.90;;;;;;4992542;28;20030;-75
2022/06/27 02:58:42;;;;;;;0.00;0.00;;;20.40;99.90;;;;;;4992699;28;20110;-74
2022/06/27 03:01:12;;;;;;;2.45;0.43;;;20.40;99.90;;;;;;4992469;28;20026;-74
2022/06/27 03:03:41;;;;;;;0.00;0.00;;;20.50;99.90;;;;;;4992532;28;20026;-75
2022/06/27 03:06:07;;;;;;;0.00;0.00;;;20.50;99.90;;;;;;4991367;28;20015;-75
2022/06/27 03:08:59;;;;;;;0.00;0.00;;;20.60;99.90;;;;;;4991343;28;20019;-74
2022/06/27 03:11:25;;;;;;;0.00;0.00;;;20.40;99.90;;;;;;4988914;28;20051;-75
2022/06/27 03:13:53;;;;;;;0.52;0.10;;;20.50;99.90;;;;;;4992540;28;20026;-75
2022/06/27 03:16:20;;;;;;;0.10;0.10;;;20.70;99.90;;;;;;4992590;28;20637;-73
2022/06/27 03:18:47;;;;;;;0.00;0.00;;;20.90;99.90;;;;;;5005686;23;20477;-73
2022/06/27 03:21:13;;;;;;;0.00;0.00;;;21.10;99.90;;;;;;4992220;28;20450;-73
2022/06/27 03:23:40;;;;;;;0.00;0.00;;;21.30;99.90;;;;;;4992101;28;20026;-73
2022/06/27 03:26:06;;;;;;;0.10;0.10;;;21.40;99.90;;;;;;4992147;28;20030;-73
2022/06/27 03:28:32;;;;;;;0.10;0.10;;;21.50;99.90;;;;;;4995858;28;20100;-73
2022/06/27 03:30:57;;;;;;;0.00;0.00;;;21.60;99.90;;;;;;4995867;28;20023;-73
2022/06/27 03:33:23;;;;;;;0.05;0.05;;;21.60;99.90;;;;;;4995967;28;20023;-73
2022/06/27 03:35:49;;;;;;;0.80;0.45;;;21.50;99.90;;;;;;4994676;28;20053;-73
2022/06/27 03:38:15;;;;;;;0.10;0.10;;;21.40;99.90;;;;;;4994657;28;20470;-73
2022/06/27 03:40:41;;;;;;;0.00;0.00;;;21.30;99.90;;;;;;4995654;28;20027;-73
2022/06/27 03:43:08;;;;;;;0.10;0.10;;;21.30;99.90;;;;;;4995555;28;20061;-73
2022/06/27 03:45:33;;;;;;;0.10;0.10;;;21.30;99.90;;;;;;4994554;28;20022;-74
2022/06/27 03:48:01;;;;;;;0.00;0.00;;;21.50;99.90;;;;;;4995631;28;20030;-73
2022/06/27 03:50:27;;;;;;;0.00;0.00;;;21.40;99.90;;;;;;5010366;28;20073;-74
2022/06/27 03:52:54;;;;;;;1.20;1.10;;;21.60;99.90;;;;;;4994346;28;20583;-73
2022/06/27 03:55:22;;;;;;;0.10;0.10;;;21.60;99.90;;;;;;4995547;28;20029;-73
2022/06/27 03:57:49;;;;;;;0.00;0.00;;;21.70;99.90;;;;;;4994222;28;20156;-73
2022/06/27 04:00:15;;;;;;;0.03;0.03;;;21.80;99.90;;;;;;4977757;28;20393;-74
2022/06/27 04:02:41;;;;;;;0.30;0.30;;;21.50;99.90;;;;;;4995369;28;20033;-73
2022/06/27 04:05:08;;;;;;;0.05;0.05;;;21.40;99.90;;;;;;4994173;28;20490;-74
2022/06/27 04:07:33;;;;;;;0.25;0.25;;;21.40;99.90;;;;;;4994058;28;20555;-74
2022/06/27 04:09:59;;;;;;;0.00;0.00;;;21.40;99.90;;;;;;4993694;28;20109;-73
2022/06/27 04:12:25;;;;;;;0.08;0.08;;;21.40;99.90;;;;;;4995218;28;20022;-73
2022/06/27 04:14:51;;;;;;;0.00;0.00;;;21.30;99.90;;;;;;4993926;28;20038;-73
2022/06/27 04:17:17;;;;;;;0.00;0.00;;;21.30;99.90;;;;;;4993806;28;20085;-73
2022/06/27 04:19:43;;;;;;;0.05;0.05;;;21.40;99.90;;;;;;4993723;28;20041;-73
2022/06/27 04:22:09;;;;;;;0.00;0.00;;;21.50;99.90;;;;;;4993805;28;20411;-73
2022/06/27 04:24:37;;;;;;;0.00;0.00;;;21.60;99.90;;;;;;4994689;28;20057;-74
2022/06/27 04:27:04;;;;;;;0.00;0.00;;;21.50;99.90;;;;;;4994935;28;20027;-73
2022/06/27 04:29:31;;;;;;;0.15;0.15;;;21.50;99.90;;;;;;4994731;28;20527;-73
2022/06/27 04:32:00;;;;;;;0.10;0.10;;;21.40;99.90;;;;;;4994781;28;20030;-73
2022/06/27 04:34:26;;;;;;;0.00;0.00;;;21.30;99.90;;;;;;4994893;28;20484;-73
2022/06/27 04:36:52;;;;;;;0.20;0.20;;;21.30;99.90;;;;;;4994807;28;20065;-73
2022/06/27 04:39:19;;;;;;;0.10;0.10;;;21.20;99.90;;;;;;4993240;28;20045;-73
2022/06/27 04:41:46;;;;;;;0.10;0.10;;;21.10;99.90;;;;;;4993181;28;20505;-73
2022/06/27 04:44:13;;;;;;;0.20;0.20;;;21.10;99.90;;;;;;4994643;28;20109;-74
2022/06/27 04:46:40;;;;;;;0.00;0.00;;;21.20;99.90;;;;;;4993316;28;20482;-73
2022/06/27 04:49:07;;;;;;;0.00;0.00;;;21.20;99.90;;;;;;4993024;28;20026;-73
2022/06/27 04:51:33;;;;;;;0.20;0.20;;;21.30;99.90;;;;;;4993342;28;20092;-74
2022/06/27 04:53:59;;;;;;;0.10;0.10;;;21.10;99.90;;;;;;4993272;28;20030;-73
2022/06/27 04:56:25;;;;;;;0.00;0.00;;;21.10;99.90;;;;;;4994446;28;20108;-73
2022/06/27 04:58:52;;;;;;;0.10;0.10;;;21.10;99.90;;;;;;4994038;28;20041;-73
2022/06/27 05:01:18;;;;;;;0.00;0.00;;;21.20;99.90;;;;;;4994370;28;20036;-73
2022/06/27 05:03:43;;;;;;;0.00;0.00;;;21.40;99.90;;;;;;4994258;28;20030;-73
2022/06/27 05:06:09;;;;;;;0.00;0.00;;;21.40;99.90;;;;;;4994202;28;20033;-73
2022/06/27 05:08:37;;;;;;;0.52;0.30;;;21.50;99.90;;;;;;4994137;28;20537;-74
2022/06/27 05:11:03;;;;;;;0.45;0.40;;;21.60;99.90;;;;;;4993995;28;20069;-73
2022/06/27 05:13:29;;;;;;;0.00;0.00;;;21.50;99.90;;;;;;4994207;28;20030;-73
2022/06/27 05:15:55;;;;;;;0.17;0.17;;;21.60;99.90;;;;;;4992914;28;20473;-73
2022/06/27 05:18:21;;;;;;;0.17;0.17;;;21.50;99.90;;;;;;4993684;28;20085;-73
2022/06/27 05:20:48;;;;;;;0.00;0.00;;;21.40;99.90;;;;;;4992549;28;20030;-73
2022/06/27 05:23:14;;;;;;;0.08;0.08;;;21.40;99.90;;;;;;4993950;28;20026;-74
2022/06/27 05:25:41;;;;;;;0.10;0.10;;;21.60;99.90;;;;;;4993735;28;20481;-73
2022/06/27 05:28:07;;;;;;;0.00;0.00;;;21.60;99.90;;;;;;4993812;28;20034;-73
2022/06/27 05:30:34;;;;;;;0.00;0.00;;;21.60;99.90;;;;;;4993577;28;20023;-74
2022/06/27 05:32:59;;;;;;;0.00;0.00;;;21.60;99.90;;;;;;4993808;28;20030;-73
2022/06/27 05:35:26;;;;;;;0.20;0.13;;;21.90;99.90;;;;;;4992429;28;20035;-73
2022/06/27 05:37:54;;;;;;;0.10;0.10;;;21.90;99.90;;;;;;4992446;28;20097;-73
2022/06/27 05:40:20;;;;;;;0.90;0.52;;;22.10;99.90;;;;;;4993559;28;20031;-73
2022/06/27 05:42:48;;;;;;;0.00;0.00;;;22.10;99.90;;;;;;4992364;28;20054;-74
2022/06/27 05:45:15;;;;;;;0.00;0.00;;;22.00;99.90;;;;;;4993545;28;20386;-73
2022/06/27 05:47:42;;;;;;;0.13;0.13;;;22.10;99.90;;;;;;4993397;28;20105;-73
2022/06/27 05:50:08;;;;;;;0.25;0.25;;;22.00;99.90;;;;;;4992788;28;20085;-73
2022/06/27 05:52:35;;;;;;;0.00;0.00;;;21.80;99.90;;;;;;4992087;28;20103;-73
2022/06/27 05:55:02;;;;;;;0.00;0.00;;;21.90;99.90;;;;;;4992039;28;20030;-73
2022/06/27 05:57:28;;;;;;;1.25;1.08;;;22.10;99.90;;;;;;4992167;28;20486;-73
2022/06/27 05:59:55;;;;;;;0.00;0.00;;;22.20;99.90;;;;;;4993142;28;20081;-73
2022/06/27 06:02:23;;;;;;;0.15;0.15;;;22.30;99.90;;;;;;4993232;28;20037;-73
2022/06/27 06:04:50;;;;;;;0.08;0.08;;;22.20;99.90;;;;;;4993105;28;20080;-73
2022/06/27 06:07:16;;;;;;;0.10;0.10;;;22.30;99.90;;;;;;4993114;28;20030;-73
2022/06/27 06:09:42;;;;;;;0.00;0.00;;;22.40;99.90;;;;;;4992863;28;20026;-73
2022/06/27 06:12:12;;;;;;;0.10;0.10;;;22.40;99.90;;;;;;4991778;28;20019;-73
2022/06/27 06:14:38;;;;;;;0.08;0.08;;;22.60;99.90;;;;;;4991782;28;20026;-73
2022/06/27 06:17:05;;;;;;;0.00;0.00;;;22.50;99.90;;;;;;4993129;28;20674;-73
2022/06/27 06:19:32;;;;;;;0.30;0.30;;;22.60;99.90;;;;;;4992668;28;20041;-73
2022/06/27 06:21:58;;;;;;;0.00;0.00;;;22.70;99.90;;;;;;4991788;28;20042;-73
2022/06/27 06:24:24;;;;;;;0.00;0.00;;;22.90;99.90;;;;;;4991352;28;20038;-74
2022/06/27 06:26:55;;;;;;;0.08;0.08;;;23.00;99.90;;;;;;4992961;28;20018;-73
2022/06/27 06:29:23;;;;;;;0.00;0.00;;;23.10;99.90;;;;;;4975095;28;20486;-73
2022/06/27 06:31:49;;;;;;;0.00;0.00;;;23.30;99.90;;;;;;4991462;28;20089;-73
2022/06/27 06:34:16;;;;;;;0.00;0.00;;;23.30;99.90;;;;;;4992735;28;20053;-74
2022/06/27 06:36:46;;;;;;;3.85;3.53;;;23.40;99.90;;;;;;4991463;28;20022;-73
2022/06/27 06:39:12;;;;;;;0.32;0.32;;;23.50;99.90;;;;;;4992338;28;20034;-73
2022/06/27 06:41:39;;;;;;;0.00;0.00;;;23.30;99.90;;;;;;4991366;28;20062;-73
2022/06/27 06:44:06;;;;;;;0.00;0.00;;;23.40;99.90;;;;;;4991201;28;20031;-73
2022/06/27 06:46:35;;;;;;;0.00;0.00;;;23.70;99.90;;;;;;4992608;28;20023;-73
2022/06/27 06:49:11;;;;;;;0.05;0.05;;;23.80;99.40;;;;;;4991020;28;20133;-73
2022/06/27 06:51:39;;;;;;;0.00;0.00;;;23.70;99.60;;;;;;4992587;28;20088;-73
2022/06/27 06:54:06;;;;;;;0.00;0.00;;;23.80;98.80;;;;;;4992603;28;20018;-74
2022/06/27 06:56:34;;;;;;;0.13;0.13;;;23.80;98.10;;;;;;4992567;28;20096;-74
2022/06/27 06:59:02;;;;;;;0.00;0.00;;;24.00;97.90;;;;;;4974710;28;20113;-74
2022/06/27 07:01:31;;;;;;;0.00;0.00;;;24.40;97.70;;;;;;4993179;28;20041;-73
2022/06/27 07:03:57;;;;;;;0.15;0.15;;;24.50;96.30;;;;;;4995072;28;20097;-73
2022/06/27 07:06:25;;;;;;;0.00;0.00;;;24.70;95.80;;;;;;4995138;28;20026;-74
2022/06/27 07:08:57;;;;;;;0.00;0.00;;;24.70;95.30;;;;;;4994950;28;20065;-74
2022/06/27 07:11:28;;;;;;;0.05;0.05;;;24.90;94.20;;;;;;4996414;28;20018;-73
2022/06/27 07:13:55;;;;;;;;;;;24.90;93.60;;;;;;4996576;28;20033;-73
2022/06/27 07:16:21;;;;;;;0.00;0.00;;;25.20;93.40;;;;;;4994737;28;20301;-74
2022/06/27 07:18:48;;;;;;;0.00;0.00;;;25.30;92.40;;;;;;4978270;28;20494;-73
2022/06/27 07:21:16;;;;;;;0.05;0.05;;;25.30;92.80;;;;;;4995645;28;20029;-73
2022/06/27 07:23:42;;;;;;;0.00;0.00;;;25.30;93.00;;;;;;4995662;28;20065;-73
2022/06/27 07:26:09;;;;;;;0.00;0.00;;;25.50;92.80;;;;;;4978397;28;20027;-73
2022/06/27 07:28:35;;;;;;;0.00;0.00;;;25.50;92.40;;;;;;4995607;28;20026;-73
2022/06/27 07:31:08;;;;;;;0.00;0.00;;;25.60;92.80;;;;;;4995977;28;20034;-73
2022/06/27 07:33:36;;;;;;;0.00;0.00;;;25.70;92.60;;;;;;4995952;28;20018;-74
2022/06/27 07:36:05;;;;;;;0.00;0.00;;;25.90;91.90;;;;;;4995903;28;20019;-73
2022/06/27 07:38:36;;;;;;;0.10;0.10;;;26.10;92.00;;;;;;4995609;28;20030;-74
2022/06/27 07:41:02;;;;;;;0.00;0.00;;;26.30;91.90;;;;;;4977835;28;20034;-74
2022/06/27 07:43:28;;;;;;;0.00;0.00;;;26.30;91.00;;;;;;4995630;28;20335;-74
2022/06/27 07:45:56;;;;;;;0.00;0.00;;;26.30;91.10;;;;;;4995607;28;20025;-73
2022/06/27 07:48:22;;;;;;;0.10;0.10;;;26.30;91.40;;;;;;4995567;28;20023;-74
2022/06/27 07:50:48;;;;;;;0.00;0.00;;;26.30;90.60;;;;;;4995331;28;20029;-73
2022/06/27 07:53:19;;;;;;;0.00;0.00;;;26.30;90.60;;;;;;4994017;28;20022;-73
2022/06/27 07:55:58;;;;;;;0.38;0.38;;;26.50;90.30;;;;;;4994346;28;20030;-73
2022/06/27 07:58:30;;;;;;;0.00;0.00;;;26.70;90.30;;;;;;4995483;28;20089;-73
2022/06/27 08:00:57;;;;;;;0.17;0.17;;;26.80;89.40;;;;;;4993975;28;20093;-74
2022/06/27 08:03:44;;;;;;;0.00;0.00;;;26.90;89.00;;;;;;4995240;28;20037;-73
2022/06/27 08:06:22;;;;;;;0.60;0.52;;;27.00;89.10;;;;;;4995390;28;20379;-73
2022/06/27 08:08:54;;;;;;;0.00;0.00;;;27.00;89.60;;;;;;4995097;28;20045;-73
2022/06/27 08:11:22;;;;;;;0.00;0.00;;;27.00;89.10;;;;;;4995277;28;20065;-74
2022/06/27 08:13:50;;;;;;;0.00;0.00;;;27.10;89.10;;;;;;4995041;28;20125;-74
2022/06/27 08:16:18;;;;;;;0.00;0.00;;;27.30;88.40;;;;;;4994962;28;20451;-74
2022/06/27 08:18:47;;;;;;;0.00;0.00;;;27.50;87.50;;;;;;4993587;28;20473;-73
2022/06/27 08:21:15;;;;;;;0.00;0.00;;;27.60;86.10;;;;;;4993631;28;20391;-75
2022/06/27 08:23:41;;;;;;;0.00;0.00;;;27.60;85.50;;;;;;4995009;28;20030;-77
2022/06/27 08:26:09;;;;;;;0.00;0.00;;;27.70;84.90;;;;;;4994843;28;20076;-75
2022/06/27 08:28:36;;;;;;;0.03;0.03;;;27.90;83.70;;;;;;4995128;28;20430;-72
2022/06/27 08:31:05;;;;;;;0.00;0.00;;;28.30;83.00;;;;;;4995064;28;20030;-72
2022/06/27 08:33:31;;;;;;;0.10;0.10;;;28.50;80.80;;;;;;4995227;28;20028;-72
2022/06/27 08:35:59;;;;;;;0.00;0.00;;;28.40;79.40;;;;;;4994654;28;20101;-72
2022/06/27 08:38:25;;;;;;;0.10;0.10;;;28.50;79.60;;;;;;4994585;28;20023;-72
2022/06/27 08:40:53;;;;;;;0.00;0.00;;;28.60;78.20;;;;;;4994679;28;20113;-72
2022/06/27 08:43:19;;;;;;;0.00;0.00;;;28.80;77.70;;;;;;4994402;28;20386;-72
2022/06/27 08:45:47;;;;;;;0.20;0.20;;;29.00;75.10;;;;;;4995077;28;20019;-74
2022/06/27 08:48:14;;;;;;;0.00;0.00;;;29.00;73.40;;;;;;4994547;28;20463;-74
2022/06/27 08:50:42;;;;;;;0.00;0.00;;;29.00;73.30;;;;;;4994291;28;20014;-74
2022/06/27 08:53:11;;;;;;;0.00;0.00;;;29.20;71.50;;;;;;4994408;28;20034;-74
2022/06/27 08:55:37;;;;;;;0.00;0.00;;;29.40;70.50;;;;;;4994417;28;20022;-74
2022/06/27 08:58:10;;;;;;;0.00;0.00;;;29.40;69.00;;;;;;4994374;28;20026;-75
2022/06/27 09:00:45;;;;;;;0.00;0.00;;;29.70;67.90;;;;;;4994105;28;20090;-74
2022/06/27 09:03:18;;;;;;;0.00;0.00;;;29.60;69.50;;;;;;4994229;28;20023;-74
2022/06/27 09:05:57;;;;;;;0.00;0.00;;;29.50;70.40;;;;;;4992769;28;20031;-74
2022/06/27 09:08:26;;;;;;;0.00;0.00;;;29.60;69.70;;;;;;4976824;28;20478;-74
2022/06/27 09:10:53;;;;;;;0.10;0.10;;;29.70;70.40;;;;;;4993664;28;20015;-74
2022/06/27 09:13:20;;;;;;;0.00;0.00;;;30.10;69.30;;;;;;4994044;28;20033;-74
2022/06/27 09:15:49;;;;;;;0.85;0.85;;;29.80;68.50;;;;;;4992860;28;20502;-74
2022/06/27 09:18:20;;;;;;;0.00;0.00;;;30.10;69.10;;;;;;5063106;23;20045;-73
2022/06/27 09:21:07;;;;;;;0.35;0.35;;;30.20;68.50;;;;;;4975900;28;20392;-73
2022/06/27 09:23:49;;;;;;;0.20;0.10;;;30.60;67.80;;;;;;4992747;28;20371;-72
2022/06/27 09:26:18;;;;;;;0.00;0.00;;;31.00;66.10;;;;;;4992236;28;20505;-73
2022/06/27 09:28:47;;;;;;;5.38;0.75;;;31.00;67.40;;;;;;4993872;28;20033;-73
2022/06/27 09:31:30;;;;;;;0.50;0.47;;;31.00;65.50;;;;;;4992605;28;20080;-73
2022/06/27 09:34:24;;;;;;;0.00;0.00;;;31.00;62.80;;;;;;4993861;28;20069;-73
2022/06/27 09:36:52;;;;;;;0.00;0.00;;;31.30;62.50;;;;;;4992583;28;20030;-73
2022/06/27 09:39:18;;;;;;;0.10;0.10;;;31.20;63.20;;;;;;4993517;28;20022;-73
2022/06/27 09:41:54;;;;;;;0.00;0.00;;;31.30;61.60;;;;;;4993808;28;20442;-73
2022/06/27 09:44:24;;;;;;;0.00;0.00;;;31.50;62.10;;;;;;4992076;28;20106;-73
2022/06/27 09:47:27;;;;;;;0.28;0.28;;;31.00;62.60;;;;;;4992528;28;20093;-73
2022/06/27 09:49:56;;;;;;;0.57;0.50;;;31.40;63.00;;;;;;4952799;28;20398;-73
2022/06/27 09:52:24;;;;;;;1.60;0.63;;;32.00;61.50;;;;;;4993535;28;20046;-73
2022/06/27 09:54:52;;;;;;;0.00;0.00;;;32.10;59.80;;;;;;4993507;28;20053;-73
2022/06/27 09:57:19;;;;;;;0.00;0.00;;;32.10;59.80;;;;;;4992124;28;20028;-73
2022/06/27 09:59:49;;;;;;;0.00;0.00;;;32.30;59.90;;;;;;4991852;28;20057;-73
2022/06/27 10:02:17;;;;;;;0.10;0.10;;;32.70;58.80;;;;;;4992142;28;20390;-74
2022/06/27 10:04:44;;;;;;;0.00;0.00;;;32.40;59.50;;;;;;4992268;28;20022;-73
2022/06/27 10:07:11;;;;;;;3.40;0.80;;;32.50;59.00;;;;;;4993258;28;20029;-73
2022/06/27 10:09:38;;;;;;;0.10;0.10;;;32.30;57.30;;;;;;4975823;28;20046;-73
2022/06/27 10:12:27;;;;;;;0.00;0.00;;;32.50;58.40;;;;;;4991995;28;20034;-73
2022/06/27 10:15:14;;;;;;;0.00;0.00;;;33.00;58.00;;;;;;4992027;28;20494;-73
2022/06/27 10:17:46;;;;;;;0.00;0.00;;;33.20;56.40;;;;;;4991996;28;20026;-73
2022/06/27 10:20:16;;;;;;;0.20;0.20;;;33.50;56.10;;;;;;4975452;28;20117;-73
2022/06/27 10:22:42;;;;;;;0.10;0.10;;;33.80;56.00;;;;;;4991656;28;20032;-73
2022/06/27 10:25:26;;;;;;;1.27;0.40;;;33.60;54.90;;;;;;4991320;28;20035;-73
2022/06/27 10:28:10;;;;;;;0.10;0.08;;;33.40;56.60;;;;;;4991658;28;20055;-73
2022/06/27 10:30:47;;;;;;;0.00;0.00;;;33.50;56.10;;;;;;4992572;28;20102;-73
2022/06/27 10:33:25;;;;;;;0.00;0.00;;;33.60;52.80;;;;;;4993044;28;20076;-73
2022/06/27 10:38:29;;;;;;;0.32;0.20;;;33.90;53.40;;;;;;4992639;28;20073;-73
2022/06/27 10:40:57;;;;;;;1.20;1.10;;;33.40;56.20;;;;;;4992512;28;20165;-73
2022/06/27 10:43:39;;;;;;;0.00;0.00;;;33.50;54.70;;;;;;4992800;28;20478;-73
2022/06/27 10:46:11;;;;;;;0.70;0.43;;;33.50;54.40;;;;;;4991619;28;20479;-73
2022/06/27 10:48:42;;;;;;;0.00;0.00;;;33.20;53.00;;;;;;4991297;28;20026;-73
2022/06/27 10:51:26;;;;;;;;;;;33.10;51.20;;;;;;4992837;28;20482;-73
2022/06/27 10:54:13;;;;;;;0.10;0.10;;;33.30;51.40;;;;;;4992503;28;20362;-73
2022/06/27 10:56:44;;;;;;;0.20;0.10;;;33.50;50.90;;;;;;4992499;28;20027;-73
2022/06/27 10:59:15;;;;;;;0.00;0.00;;;33.70;51.30;;;;;;4992371;28;20113;-73
2022/06/27 11:02:02;;;;;;;0.40;0.30;;;33.80;52.00;;;;;;4991440;28;20038;-73
2022/06/27 11:04:34;;;;;;;0.28;0.28;;;34.00;51.80;;;;;;4990903;28;20508;-73
2022/06/27 11:07:01;;;;;;;0.10;0.10;;;33.60;52.60;;;;;;4992417;28;20023;-73
2022/06/27 11:09:37;;;;;;;0.08;0.08;;;34.00;51.00;;;;;;4990901;28;20022;-73
2022/06/27 11:12:05;;;;;;;0.00;0.00;;;34.30;49.60;;;;;;4992319;28;20059;-73
2022/06/27 11:14:42;;;;;;;0.00;0.00;;;34.30;49.60;;;;;;4992371;28;20026;-72
2022/06/27 11:17:33;;;;;;;0.00;0.00;;;34.60;49.90;;;;;;4992387;28;20099;-73
2022/06/27 11:20:12;;;;;;;0.10;0.10;;;34.50;52.10;;;;;;4992006;28;20061;-73
2022/06/27 11:22:42;;;;;;;0.00;0.00;;;34.60;49.70;;;;;;4992139;28;20084;-73
2022/06/27 11:25:08;;;;;;;0.60;0.60;;;34.70;50.00;;;;;;4991943;28;20030;-73
2022/06/27 11:27:47;;;;;;;0.30;0.30;;;34.70;50.30;;;;;;4992253;28;20027;-73
2022/06/27 11:33:11;;;;;;;0.00;0.00;;;34.20;51.20;;;;;;4992067;28;20025;-73
2022/06/27 11:35:37;;;;;;;1.10;0.40;;;34.10;47.80;;;;;;4991144;28;20444;-73
2022/06/27 11:38:05;;;;;;;0.00;0.00;;;34.10;47.20;;;;;;4992399;28;20023;-73
2022/06/27 11:40:30;;;;;;;0.00;0.00;;;34.10;47.30;;;;;;4990917;28;20095;-73
2022/06/27 11:42:56;;;;;;;0.10;0.10;;;34.00;49.40;;;;;;4992024;28;20031;-73
2022/06/27 11:45:22;;;;;;;1.85;0.32;;;33.90;49.50;;;;;;4992023;28;20165;-73
2022/06/27 11:47:48;;;;;;;0.10;0.10;;;34.00;49.40;;;;;;4993206;28;20494;-72
2022/06/27 11:50:16;;;;;;;0.00;0.00;;;33.80;50.40;;;;;;4994246;28;20035;-73
2022/06/27 11:52:50;;;;;;;0.10;0.10;;;33.80;50.80;;;;;;4995710;28;20018;-73
2022/06/27 11:55:22;;;;;;;0.10;0.10;;;33.60;51.00;;;;;;4995695;28;20402;-73
2022/06/27 11:57:48;;;;;;;0.00;0.00;;;33.60;51.60;;;;;;4994387;28;20031;-73
2022/06/27 12:00:22;;;;;;;0.00;0.00;;;33.80;51.20;;;;;;4995370;28;20512;-73
2022/06/27 12:03:08;;;;;;;0.00;0.00;;;33.70;51.50;;;;;;4995433;28;20034;-72
2022/06/27 12:05:36;;;;;;;0.03;0.03;;;33.70;50.80;;;;;;4994413;28;20022;-73
2022/06/27 12:08:10;;;;;;;0.00;0.00;;;33.70;51.20;;;;;;4995374;28;20486;-73
2022/06/27 12:11:16;;;;;;;0.00;0.00;;;33.60;50.90;;;;;;4995179;28;20033;-73
2022/06/27 12:13:33;;;;;;;0.00;0.00;;;33.70;51.10;;;;;;4995334;28;20045;-73
2022/06/27 12:16:00;;;;;;;24.55;5.05;;;33.50;50.60;;;;;;4995074;28;20382;-72
2022/06/27 12:18:38;;;;;;;0.00;0.00;;;33.40;50.50;;;;;;4995336;28;20065;-73
2022/06/27 12:21:04;;;;;;;0.47;0.10;;;33.10;50.40;;;;;;4995058;28;20026;-73
2022/06/27 12:23:30;;;;;;;0.15;0.15;;;33.20;51.30;;;;;;4995075;28;20393;-73
2022/06/27 12:25:56;;;;;;;2.45;0.65;;;33.40;50.60;;;;;;4993627;28;20034;-73
2022/06/27 12:28:22;;;;;;;0.20;0.20;;;33.40;50.30;;;;;;4995043;28;20054;-73
2022/06/27 12:30:48;;;;;;;0.00;0.00;;;33.50;49.40;;;;;;4994861;28;20101;-72
2022/06/27 12:33:13;;;;;;;0.63;0.63;;;33.40;50.00;;;;;;4994884;28;20510;-73
2022/06/27 12:35:39;;;;;;;0.00;0.00;;;33.20;49.60;;;;;;4995112;28;20047;-73
2022/06/27 12:38:07;;;;;;;0.20;0.20;;;33.20;49.90;;;;;;4993425;28;20031;-72
2022/06/27 12:40:33;;;;;;;0.17;0.17;;;33.20;50.20;;;;;;4994530;28;20026;-73
2022/06/27 12:42:59;;;;;;;0.13;0.13;;;33.20;50.50;;;;;;4994625;28;20026;-73
2022/06/27 12:45:25;;;;;;;0.00;0.00;;;33.10;55.90;;;;;;4993411;28;20451;-72
2022/06/27 12:47:52;;;;;;;0.00;0.00;;;33.10;56.80;;;;;;4993492;28;20364;-72
2022/06/27 12:50:17;;;;;;;0.30;0.10;;;33.20;56.90;;;;;;4993215;28;20106;-73
2022/06/27 12:52:43;;;;;;;0.50;0.50;;;32.90;58.10;;;;;;4994532;28;20527;-72
2022/06/27 12:55:10;;;;;;;0.17;0.17;;;32.80;58.50;;;;;;4993298;28;20110;-72
2022/06/27 12:57:36;;;;;;;0.25;0.25;;;32.80;58.70;;;;;;4994503;28;20153;-72
2022/06/27 13:00:04;;;;;;;0.00;0.00;;;32.60;58.60;;;;;;4992077;28;20113;-72
2022/06/27 13:02:30;;;;;;;0.00;0.00;;;32.50;59.40;;;;;;4993021;28;20045;-73